createdAt,value
2018-11-02T00:00:40.220Z,8.80
2018-11-02T00:05:44.309Z,8.67
2018-11-02T00:11:07.511Z,12.83
2018-11-02T00:16:11.782Z,8.27
2018-11-02T00:21:15.960Z,7.60
2018-11-02T00:26:20.159Z,8.67
2018-11-02T00:31:24.307Z,11.30
2018-11-02T00:36:28.530Z,11.03
2018-11-02T00:41:32.749Z,7.10
2018-11-02T00:46:37.099Z,5.93
2018-11-02T00:51:41.244Z,10.00
2018-11-02T00:56:45.340Z,9.00
2018-11-02T01:01:49.612Z,15.77
2018-11-02T01:06:53.644Z,13.90
2018-11-02T01:11:58.270Z,14.23
2018-11-02T01:17:02.817Z,16.63
2018-11-02T01:22:07.159Z,16.30
2018-11-02T01:27:11.350Z,14.90
2018-11-02T01:32:17.117Z,17.07
2018-11-02T01:37:21.420Z,15.20
2018-11-02T01:42:25.694Z,12.30
2018-11-02T01:48:32.998Z,20.40
2018-11-02T01:53:37.185Z,15.87
2018-11-02T01:58:42.100Z,14.97
2018-11-02T02:03:46.361Z,13.57
2018-11-02T02:08:50.680Z,18.87
2018-11-02T02:13:54.928Z,11.50
2018-11-02T02:18:59.465Z,14.27
2018-11-02T02:24:03.257Z,15.00
2018-11-02T02:29:07.296Z,14.43
2018-11-02T02:34:11.346Z,15.30
2018-11-02T02:39:15.436Z,15.00
2018-11-02T02:44:19.518Z,14.33
2018-11-02T02:49:23.549Z,12.20
2018-11-02T02:54:27.706Z,13.43
2018-11-02T02:59:31.801Z,14.63
2018-11-02T03:04:35.901Z,13.53
2018-11-02T03:09:40.077Z,16.97
2018-11-02T03:14:43.898Z,16.60
2018-11-02T03:19:47.951Z,19.60
2018-11-02T03:24:52.119Z,17.13
2018-11-02T03:29:56.197Z,15.63
2018-11-02T03:35:00.246Z,13.00
2018-11-02T03:40:04.661Z,15.03
2018-11-02T03:45:09.433Z,18.67
2018-11-02T03:50:13.536Z,17.37
2018-11-02T03:55:17.728Z,21.63
2018-11-02T04:00:21.832Z,15.90
2018-11-02T04:05:25.917Z,17.50
2018-11-02T04:10:30.209Z,17.23
2018-11-02T04:15:34.420Z,19.17
2018-11-02T04:20:38.572Z,18.03
2018-11-02T04:25:42.607Z,17.03
2018-11-02T04:30:46.772Z,15.87
2018-11-02T04:35:50.782Z,22.10
2018-11-02T04:40:55.028Z,18.70
2018-11-02T04:45:59.176Z,18.60
2018-11-02T04:51:03.168Z,16.77
2018-11-02T04:56:07.144Z,16.17
2018-11-02T05:01:11.542Z,18.90
2018-11-02T05:06:15.668Z,16.53
2018-11-02T05:11:19.870Z,20.17
2018-11-02T05:16:23.918Z,18.53
2018-11-02T05:21:28.267Z,21.20
2018-11-02T05:26:32.236Z,26.60
2018-11-02T05:31:36.439Z,22.97
2018-11-02T05:36:40.564Z,20.50
2018-11-02T05:41:44.613Z,23.83
2018-11-02T05:46:48.709Z,22.10
2018-11-02T05:51:52.914Z,32.97
2018-11-02T05:56:57.012Z,27.63
2018-11-02T06:02:01.003Z,30.47
2018-11-02T06:07:05.131Z,33.83
2018-11-02T06:12:09.142Z,30.93
2018-11-02T06:17:13.300Z,30.33
2018-11-02T06:22:17.495Z,25.43
2018-11-02T06:27:21.589Z,23.27
2018-11-02T06:32:25.788Z,20.40
2018-11-02T06:37:29.944Z,21.37
2018-11-02T06:42:33.981Z,22.07
2018-11-02T06:47:38.157Z,29.57
2018-11-02T06:52:42.301Z,35.37
2018-11-02T06:57:46.409Z,33.80
2018-11-02T07:02:50.410Z,33.33
2018-11-02T07:07:54.615Z,34.83
2018-11-02T07:12:58.572Z,27.73
2018-11-02T07:18:02.640Z,29.03
2018-11-02T07:23:07.245Z,26.57
2018-11-02T07:28:11.553Z,18.60
2018-11-02T07:33:15.601Z,19.90
2018-11-02T07:38:19.831Z,18.73
2018-11-02T07:43:23.812Z,16.13
2018-11-02T07:48:27.942Z,16.70
2018-11-02T07:53:32.000Z,14.57
2018-11-02T07:58:36.017Z,15.93
2018-11-02T08:03:40.058Z,14.37
2018-11-02T08:08:44.052Z,13.80
2018-11-02T08:13:48.172Z,19.67
2018-11-02T08:18:52.790Z,16.40
2018-11-02T08:23:57.120Z,11.83
2018-11-02T08:29:01.285Z,18.37
2018-11-02T08:34:07.148Z,15.10
2018-11-02T08:39:13.228Z,22.17
2018-11-02T08:44:18.714Z,13.53
2018-11-02T08:49:22.971Z,16.47
2018-11-02T08:54:34.062Z,12.77
2018-11-02T08:59:38.318Z,15.03
2018-11-02T09:04:42.648Z,12.33
2018-11-02T09:09:46.766Z,11.30
2018-11-02T09:14:51.789Z,11.50
2018-11-02T09:19:56.268Z,11.97
2018-11-02T09:25:00.598Z,12.83
2018-11-02T09:30:07.395Z,12.33
2018-11-02T09:35:11.941Z,15.37
2018-11-02T09:40:16.197Z,12.50
2018-11-02T09:45:23.449Z,14.80
2018-11-02T09:50:28.368Z,14.30
2018-11-02T09:55:32.646Z,15.53
2018-11-02T10:00:37.189Z,16.50
2018-11-02T10:05:41.271Z,16.70
2018-11-02T10:10:45.568Z,15.23
2018-11-02T10:15:49.664Z,15.20
2018-11-02T10:20:53.971Z,15.87
2018-11-02T10:25:58.391Z,19.57
2018-11-02T10:31:03.124Z,17.03
2018-11-02T10:36:07.847Z,17.70
2018-11-02T10:41:14.483Z,16.40
2018-11-02T10:46:18.756Z,21.23
2018-11-02T10:51:23.014Z,16.03
2018-11-02T10:56:27.269Z,11.10
2018-11-02T11:01:36.812Z,13.73
2018-11-02T11:12:19.731Z,15.73
2018-11-02T11:17:23.632Z,15.37
2018-11-02T11:22:27.659Z,16.13
2018-11-02T11:27:32.115Z,15.67
2018-11-02T11:32:36.289Z,15.00
2018-11-02T11:37:40.712Z,14.17
2018-11-02T11:42:44.583Z,18.13
2018-11-02T11:47:48.523Z,16.50
2018-11-02T11:52:53.166Z,16.07
2018-11-02T11:57:56.946Z,23.33
2018-11-02T12:03:00.546Z,17.77
2018-11-02T12:08:04.280Z,14.43
2018-11-02T12:13:08.351Z,16.97
2018-11-02T12:18:12.279Z,16.37
2018-11-02T12:23:16.231Z,17.37
2018-11-02T12:28:20.162Z,13.90
2018-11-02T12:33:25.952Z,13.43
2018-11-02T12:38:29.974Z,12.60
2018-11-02T12:43:34.235Z,12.20
2018-11-02T12:48:40.282Z,11.50
2018-11-02T12:53:44.768Z,10.87
2018-11-02T12:58:49.163Z,12.00
2018-11-02T13:03:54.162Z,12.20
2018-11-02T13:08:58.722Z,11.90
2018-11-02T13:14:03.075Z,12.57
2018-11-02T13:19:07.329Z,13.07
2018-11-02T13:24:12.023Z,10.27
2018-11-02T13:29:16.435Z,6.73
2018-11-02T13:34:20.698Z,6.33
2018-11-02T13:39:24.925Z,7.87
2018-11-02T13:44:30.274Z,6.43
2018-11-02T13:49:34.548Z,7.10
2018-11-02T13:54:38.754Z,6.23
2018-11-02T13:59:42.864Z,6.50
2018-11-02T14:04:46.973Z,5.50
2018-11-02T14:09:51.085Z,7.93
2018-11-02T14:14:55.240Z,6.43
2018-11-02T14:19:59.753Z,8.50
2018-11-02T14:25:04.216Z,8.17
2018-11-02T14:30:10.599Z,9.33
2018-11-02T14:35:14.510Z,11.87
2018-11-02T14:40:18.441Z,11.43
2018-11-02T14:45:23.104Z,9.53
2018-11-02T14:50:26.991Z,10.30
2018-11-02T14:55:30.959Z,9.17
2018-11-02T15:00:34.802Z,9.20
2018-11-02T15:05:38.654Z,10.20
2018-11-02T15:10:42.613Z,9.10
2018-11-02T15:15:46.966Z,12.53
2018-11-02T15:20:53.121Z,9.50
2018-11-02T15:25:57.450Z,8.43
2018-11-02T15:31:01.547Z,7.70
2018-11-02T15:36:06.663Z,12.47
2018-11-02T15:41:10.539Z,12.07
2018-11-02T15:46:14.667Z,9.50
2018-11-02T15:51:18.599Z,8.77
2018-11-02T15:56:22.726Z,11.10
2018-11-02T16:01:26.714Z,7.53
2018-11-02T16:06:31.158Z,11.13
2018-11-02T16:11:35.407Z,7.60
2018-11-02T16:16:39.544Z,8.47
2018-11-02T16:21:44.239Z,8.73
2018-11-02T16:26:48.288Z,11.57
2018-11-02T16:31:52.275Z,12.73
2018-11-02T16:36:58.838Z,13.73
2018-11-02T16:42:04.083Z,6.83
2018-11-02T16:47:09.865Z,12.07
2018-11-02T16:52:15.829Z,9.77
2018-11-02T16:57:23.586Z,9.40
2018-11-02T17:02:27.535Z,7.20
2018-11-02T17:07:32.482Z,7.70
2018-11-02T17:12:36.412Z,7.97
2018-11-02T17:17:40.006Z,6.97
2018-11-02T17:22:44.330Z,7.57
2018-11-02T17:27:49.450Z,7.37
2018-11-02T17:32:53.465Z,7.33
2018-11-02T17:37:57.216Z,7.23
2018-11-02T17:43:01.325Z,6.37
2018-11-02T17:48:05.371Z,6.57
2018-11-02T17:53:11.922Z,7.07
2018-11-02T17:58:15.841Z,8.20
2018-11-02T18:03:19.867Z,6.60
2018-11-02T18:08:23.948Z,7.10
2018-11-02T18:13:27.795Z,6.77
2018-11-02T18:18:31.696Z,7.70
2018-11-02T18:23:35.567Z,7.47
2018-11-02T18:28:39.455Z,8.30
2018-11-02T18:33:44.162Z,8.90
2018-11-02T18:38:48.231Z,8.97
2018-11-02T18:43:52.779Z,9.23
2018-11-02T18:48:59.321Z,7.60
2018-11-02T18:54:03.680Z,6.70
2018-11-02T18:59:08.777Z,7.23
2018-11-02T19:04:13.030Z,7.30
2018-11-02T19:09:17.822Z,8.60
2018-11-02T19:14:21.778Z,7.37
2018-11-02T19:19:25.839Z,8.17
2018-11-02T19:24:31.142Z,10.10
2018-11-02T19:29:35.337Z,8.97
2018-11-02T19:34:41.148Z,7.87
2018-11-02T19:39:44.409Z,8.93
2018-11-02T19:44:47.930Z,8.50
2018-11-02T19:49:52.709Z,9.03
2018-11-02T19:54:57.083Z,7.83
2018-11-02T20:00:00.938Z,6.67
2018-11-02T20:05:05.163Z,8.50
2018-11-02T20:10:09.278Z,9.07
2018-11-02T20:15:13.879Z,12.33
2018-11-02T20:20:17.798Z,16.20
2018-11-02T20:25:21.457Z,14.07
2018-11-02T20:30:25.275Z,10.63
2018-11-02T20:35:29.134Z,10.20
2018-11-02T20:40:33.034Z,10.50
2018-11-02T20:45:36.926Z,12.67
2018-11-02T20:50:40.818Z,11.27
2018-11-02T20:55:44.720Z,9.80
2018-11-02T21:00:49.803Z,12.77
2018-11-02T21:05:53.416Z,11.77
2018-11-02T21:10:57.058Z,10.70
2018-11-02T21:16:01.073Z,8.17
2018-11-02T21:21:05.722Z,8.30
2018-11-02T21:26:09.563Z,9.43
2018-11-02T21:31:13.185Z,12.83
2018-11-02T21:36:18.513Z,11.60
2018-11-02T21:41:22.094Z,9.93
2018-11-02T21:46:25.654Z,9.00
2018-11-02T21:51:29.217Z,7.70
2018-11-02T21:56:32.781Z,9.10
2018-11-02T22:01:36.253Z,9.43
2018-11-02T22:06:40.811Z,10.10
2018-11-02T22:11:44.459Z,8.20
2018-11-02T22:16:48.131Z,11.50
2018-11-02T22:21:51.836Z,9.07
2018-11-02T22:26:55.530Z,7.80
2018-11-02T22:31:59.336Z,8.07
2018-11-02T22:37:04.501Z,8.90
2018-11-02T22:42:08.271Z,10.80
2018-11-02T22:47:12.466Z,8.40
2018-11-02T22:52:17.136Z,7.33
2018-11-02T22:57:21.982Z,7.37
2018-11-02T23:02:26.107Z,9.60
2018-11-02T23:07:30.031Z,7.27
2018-11-02T23:12:34.441Z,8.37
2018-11-02T23:17:38.727Z,10.50
2018-11-02T23:22:42.967Z,8.97
2018-11-02T23:27:47.131Z,7.57
2018-11-02T23:32:51.214Z,8.83
2018-11-02T23:37:55.447Z,6.37
2018-11-02T23:42:59.595Z,6.77
2018-11-02T23:48:09.174Z,6.87
2018-11-02T23:53:13.232Z,6.20
2018-11-02T23:58:18.067Z,7.07
